Time;durP1;ratioP1;P1;durP2;ratioP2;P2;SDS_P1;SDS_P2;PMS_P1;PMS_P2;Temp;Humidity;BMP_temperature;BMP_pressure;BME280_temperature;BME280_humidity;BME280_pressure;Samples;Min_cycle;Max_cycle;Signal;HPM_P1;HPM_P2
2023/07/27 00:02:30;;;;;;;4.07;2.40;;;18.30;99.90;;;18.54;100.00;100516.63;5222581;28;20037;-50
2023/07/27 00:05:03;;;;;;;2.70;1.95;;;18.30;99.90;;;18.54;100.00;100510.47;5216056;28;20044;-51
2023/07/27 00:07:35;;;;;;;4.18;2.47;;;18.30;99.90;;;18.50;100.00;100509.59;5219139;28;20493;-50
2023/07/27 00:10:08;;;;;;;3.50;2.22;;;18.30;99.90;;;18.50;100.00;100503.44;5214564;28;20055;-50
2023/07/27 00:12:41;;;;;;;4.65;2.03;;;18.20;99.90;;;18.51;100.00;100498.16;5214730;28;20040;-49
2023/07/27 00:15:13;;;;;;;2.90;2.10;;;18.20;99.90;;;18.51;100.00;100500.78;5215750;28;20041;-50
2023/07/27 00:17:50;;;;;;;3.63;2.13;;;18.20;99.90;;;18.50;100.00;100508.72;5217136;28;20260;-50
2023/07/27 00:20:22;;;;;;;4.10;2.25;;;18.20;99.90;;;18.49;100.00;100505.19;5221984;28;20041;-50
2023/07/27 00:22:55;;;;;;;3.50;2.33;;;18.20;99.90;;;18.45;100.00;100500.78;5209526;28;20055;-50
2023/07/27 00:25:27;;;;;;;4.30;2.08;;;18.20;99.90;;;18.43;100.00;100494.66;5225982;28;20048;-50
2023/07/27 00:28:00;;;;;;;3.45;1.85;;;18.20;99.90;;;18.41;100.00;100496.44;5221890;28;20044;-50
2023/07/27 00:30:32;;;;;;;3.95;2.10;;;18.20;99.90;;;18.39;100.00;100495.56;5227776;28;20048;-50
2023/07/27 00:33:06;;;;;;;2.47;1.83;;;18.10;99.90;;;18.37;100.00;100486.75;5216790;28;20053;-51
2023/07/27 00:35:38;;;;;;;2.38;1.73;;;18.10;99.90;;;18.36;100.00;100485.00;5242513;28;20401;-51
2023/07/27 00:38:10;;;;;;;3.75;2.00;;;18.10;99.90;;;18.36;100.00;100485.00;5216253;28;20045;-50
2023/07/27 00:40:47;;;;;;;3.05;1.80;;;18.10;99.90;;;18.34;100.00;100479.72;5216519;28;20477;-50
2023/07/27 00:43:20;;;;;;;3.28;2.20;;;18.10;99.90;;;18.34;100.00;100470.94;5210305;28;20048;-50
2023/07/27 00:45:56;;;;;;;2.85;1.77;;;18.10;99.90;;;18.34;100.00;100465.66;5221481;28;20044;-51
2023/07/27 00:48:30;;;;;;;3.70;2.10;;;18.10;99.90;;;18.32;100.00;100463.03;5218912;28;20043;-50
2023/07/27 00:51:04;;;;;;;2.45;1.70;;;18.10;99.90;;;18.32;100.00;100467.41;5217165;28;20045;-50
2023/07/27 00:53:36;;;;;;;3.90;1.88;;;18.00;99.90;;;18.32;100.00;100459.47;5224427;28;20048;-50
2023/07/27 00:56:12;;;;;;;3.63;1.73;;;18.00;99.90;;;18.33;100.00;100453.34;5217579;28;20048;-50
2023/07/27 00:58:46;;;;;;;3.20;1.92;;;18.00;99.90;;;18.31;100.00;100447.19;5211892;28;20044;-51
2023/07/27 01:01:19;;;;;;;4.60;2.00;;;18.00;99.90;;;18.31;100.00;100449.81;5222587;28;20131;-50
2023/07/27 01:03:53;;;;;;;3.83;2.10;;;18.00;99.90;;;18.29;100.00;100451.59;5216403;28;20062;-51
2023/07/27 01:06:29;;;;;;;4.75;2.05;;;18.00;99.90;;;18.28;100.00;100444.56;5216759;28;20167;-52
2023/07/27 01:09:02;;;;;;;3.25;2.03;;;18.00;99.90;;;18.29;100.00;100435.75;5219990;28;20052;-51
2023/07/27 01:11:47;;;;;;;2.72;1.88;;;18.00;99.90;;;18.29;100.00;100431.38;5222937;28;20402;-51
2023/07/27 01:14:29;;;;;;;2.47;1.55;;;18.00;99.90;;;18.31;100.00;100437.50;5214538;28;20036;-51
2023/07/27 01:17:06;;;;;;;2.90;1.85;;;18.00;99.90;;;18.32;100.00;100433.09;5218247;28;20044;-50
2023/07/27 01:20:01;;;;;;;3.65;1.88;;;18.00;99.90;;;18.31;100.00;100424.31;5214390;28;20041;-50
2023/07/27 01:23:17;;;;;;;2.67;1.75;;;18.00;99.90;;;18.33;100.00;100421.69;5219734;28;20040;-50
2023/07/27 01:26:13;;;;;;;2.72;1.73;;;18.00;99.90;;;18.31;100.00;100412.88;5205700;28;20056;-51
2023/07/27 01:29:01;;;;;;;3.15;1.73;;;18.00;99.90;;;18.28;100.00;100413.78;5207516;28;20045;-49
2023/07/27 01:31:41;;;;;;;3.40;1.90;;;18.00;99.90;;;18.26;100.00;100412.91;5208511;28;20048;-50
2023/07/27 01:34:24;;;;;;;3.03;1.80;;;18.00;99.90;;;18.25;100.00;100412.91;5221893;28;20044;-50
2023/07/27 01:37:02;;;;;;;2.97;1.85;;;18.00;99.90;;;18.25;100.00;100402.34;5208185;28;20556;-51
2023/07/27 01:39:41;;;;;;;2.65;1.75;;;18.00;99.90;;;18.26;100.00;100412.03;5216623;28;20033;-51
2023/07/27 01:42:18;;;;;;;3.40;1.90;;;18.00;99.90;;;18.26;100.00;100404.13;5218676;28;20052;-50
2023/07/27 01:44:51;;;;;;;3.95;2.00;;;18.00;99.90;;;18.26;100.00;100399.72;5222034;28;20040;-50
2023/07/27 01:47:26;;;;;;;3.40;2.03;;;18.00;99.90;;;18.29;100.00;100404.09;5223994;28;20045;-50
2023/07/27 01:50:00;;;;;;;3.50;2.13;;;18.00;99.90;;;18.26;100.00;100397.09;5220240;28;20049;-49
2023/07/27 01:52:33;;;;;;;4.20;1.98;;;18.00;99.90;;;18.27;100.00;100390.03;5213991;28;20049;-51
2023/07/27 01:55:08;;;;;;;4.18;2.10;;;18.00;99.90;;;18.27;100.00;100390.03;5221726;28;20048;-51
2023/07/27 01:57:41;;;;;;;3.78;2.17;;;18.00;99.90;;;18.26;100.00;100388.28;5224812;28;20041;-50
2023/07/27 02:00:15;;;;;;;2.90;1.98;;;18.00;99.90;;;18.25;100.00;100374.19;5224161;28;20046;-50
2023/07/27 02:02:52;;;;;;;3.47;1.92;;;18.00;99.90;;;18.28;100.00;100381.25;5218678;28;20059;-51
2023/07/27 02:05:25;;;;;;;4.63;1.73;;;18.00;99.90;;;18.24;100.00;100376.84;5212538;28;20040;-51
2023/07/27 02:07:57;;;;;;;4.35;2.08;;;18.00;99.90;;;18.25;100.00;100366.28;5242261;28;20040;-50
2023/07/27 02:10:32;;;;;;;3.25;1.92;;;18.00;99.90;;;18.27;100.00;100379.50;5216869;28;20413;-51
2023/07/27 02:13:10;;;;;;;5.20;2.15;;;18.00;99.90;;;18.27;100.00;100371.56;5224762;28;20047;-50
2023/07/27 02:15:48;;;;;;;4.00;2.20;;;18.00;99.90;;;18.26;100.00;100372.47;5219752;28;20048;-51
2023/07/27 02:18:27;;;;;;;3.63;2.10;;;18.00;99.90;;;18.25;100.00;100370.69;5222291;28;20967;-50
2023/07/27 02:21:00;;;;;;;3.72;1.80;;;18.00;99.90;;;18.26;100.00;100372.47;5225031;28;20135;-50
2023/07/27 02:23:33;;;;;;;3.00;1.83;;;18.00;99.90;;;18.27;100.00;100371.56;5217255;28;20059;-50
2023/07/27 02:26:05;;;;;;;3.80;1.88;;;18.00;99.90;;;18.30;100.00;100368.91;5227836;28;20049;-51
2023/07/27 02:28:39;;;;;;;3.20;2.22;;;18.00;99.90;;;18.30;100.00;100363.63;5210679;28;20132;-51
2023/07/27 02:31:11;;;;;;;3.30;2.10;;;18.00;99.90;;;18.29;100.00;100369.81;5213814;28;20333;-50
2023/07/27 02:33:46;;;;;;;2.97;1.83;;;18.00;99.90;;;18.30;100.00;100371.56;5216724;28;20072;-51
2023/07/27 02:36:21;;;;;;;3.00;1.67;;;18.00;99.90;;;18.29;100.00;100372.44;5224488;28;20041;-50
2023/07/27 02:38:54;;;;;;;2.70;1.80;;;18.00;99.90;;;18.28;100.00;100374.19;5220307;28;20094;-50
2023/07/27 02:41:26;;;;;;;3.40;1.90;;;18.00;99.90;;;18.30;100.00;100375.06;5207575;28;20072;-50
2023/07/27 02:43:59;;;;;;;2.60;1.85;;;18.00;99.90;;;18.30;100.00;100371.56;5220955;28;20529;-50
2023/07/27 02:46:33;;;;;;;3.95;1.83;;;18.00;99.90;;;18.31;100.00;100370.66;5216702;28;20032;-50
2023/07/27 02:49:07;;;;;;;3.78;1.73;;;18.00;99.90;;;18.34;100.00;100378.59;5220604;28;20044;-50
2023/07/27 02:51:41;;;;;;;2.97;1.80;;;18.00;99.90;;;18.33;100.00;100375.06;5219266;28;20048;-50
2023/07/27 02:54:17;;;;;;;3.22;2.10;;;18.00;99.90;;;18.35;100.00;100382.97;5221791;28;20055;-50
2023/07/27 02:56:50;;;;;;;2.30;1.52;;;18.00;99.90;;;18.33;100.00;100379.47;5215784;28;20040;-50
2023/07/27 02:59:26;;;;;;;2.80;1.80;;;18.00;99.90;;;18.33;100.00;100380.34;5207981;28;20028;-50
2023/07/27 03:01:58;;;;;;;2.03;1.40;;;18.00;99.90;;;18.32;100.00;100378.59;5224478;28;20052;-50
2023/07/27 03:04:37;;;;;;;3.03;1.80;;;18.00;99.90;;;18.29;100.00;100383.00;5224346;28;20054;-49
2023/07/27 03:07:13;;;;;;;2.05;1.63;;;18.00;99.90;;;18.28;100.00;100378.59;5220814;28;20545;-50
2023/07/27 03:09:51;;;;;;;3.28;1.77;;;18.00;99.90;;;18.26;100.00;100372.47;5218536;28;20513;-50
2023/07/27 03:12:28;;;;;;;3.58;1.80;;;18.00;99.90;;;18.24;100.00;100376.84;5214562;28;20048;-50
2023/07/27 03:15:01;;;;;;;2.28;1.63;;;17.90;99.90;;;18.20;100.00;100367.22;5216361;28;20063;-50
2023/07/27 03:17:34;;;;;;;3.17;1.73;;;17.90;99.90;;;18.17;100.00;100363.69;5215877;28;20055;-50
2023/07/27 03:20:12;;;;;;;3.30;1.52;;;17.90;99.90;;;18.13;100.00;100364.59;5207437;28;20506;-51
2023/07/27 03:22:44;;;;;;;2.05;1.52;;;17.90;99.90;;;18.08;100.00;100361.06;5224607;28;20047;-50
2023/07/27 03:25:17;;;;;;;4.43;1.92;;;17.80;99.90;;;18.03;100.00;100370.75;5215426;28;20505;-51
2023/07/27 03:27:49;;;;;;;2.55;1.70;;;17.70;99.90;;;17.99;100.00;100361.09;5223556;28;20421;-50
2023/07/27 03:30:25;;;;;;;2.88;1.70;;;17.70;99.90;;;17.94;100.00;100360.25;5232383;28;20049;-50
2023/07/27 03:32:57;;;;;;;2.60;1.80;;;17.70;99.90;;;17.93;100.00;100355.84;5224339;28;20390;-50
2023/07/27 03:35:31;;;;;;;3.08;1.88;;;17.60;99.90;;;17.90;100.00;100353.19;5231717;28;20094;-50
2023/07/27 03:38:04;;;;;;;3.92;1.70;;;17.60;99.90;;;17.87;100.00;100345.31;5219246;28;20450;-50
2023/07/27 03:40:36;;;;;;;3.30;2.08;;;17.60;99.90;;;17.83;100.00;100335.66;5216582;28;20055;-50
2023/07/27 03:43:08;;;;;;;3.05;1.60;;;17.50;99.90;;;17.77;100.00;100343.56;5220333;28;20045;-50
2023/07/27 03:45:41;;;;;;;4.43;1.98;;;17.50;99.90;;;17.73;100.00;100332.13;5220341;28;20063;-50
2023/07/27 03:48:16;;;;;;;3.40;1.90;;;17.50;99.90;;;17.70;100.00;100333.88;5211970;28;20421;-51
2023/07/27 03:50:50;;;;;;;2.80;1.95;;;17.40;99.90;;;17.69;100.00;100342.66;5230481;28;20509;-50
2023/07/27 03:53:22;;;;;;;2.92;1.95;;;17.40;99.90;;;17.68;100.00;100340.91;5223585;28;20106;-50
2023/07/27 03:55:57;;;;;;;3.35;2.08;;;17.40;99.90;;;17.64;100.00;100329.50;5217326;28;20085;-51
2023/07/27 03:58:29;;;;;;;4.60;2.30;;;17.40;99.90;;;17.61;100.00;100319.84;5221990;28;20045;-50
2023/07/27 04:01:02;;;;;;;3.47;2.00;;;17.30;99.90;;;17.58;100.00;100319.81;5223948;28;20405;-51
2023/07/27 04:03:35;;;;;;;3.55;2.22;;;17.30;99.90;;;17.50;100.00;100316.34;5223777;28;20051;-50
2023/07/27 04:06:08;;;;;;;4.22;2.33;;;17.30;99.90;;;17.39;100.00;100307.53;5211167;28;20136;-50
2023/07/27 04:08:41;;;;;;;3.50;1.90;;;17.20;99.90;;;17.32;100.00;100303.16;5222666;28;20051;-51
2023/07/27 04:11:13;;;;;;;3.40;2.40;;;17.20;99.90;;;17.30;100.00;100307.56;5240476;28;20505;-50
2023/07/27 04:13:46;;;;;;;3.50;2.05;;;17.10;99.90;;;17.27;100.00;100304.91;5225889;28;20040;-50
2023/07/27 04:16:21;;;;;;;4.28;2.33;;;17.10;99.90;;;17.25;100.00;100288.25;5211152;28;20049;-51
2023/07/27 04:18:53;;;;;;;4.43;2.13;;;17.00;99.90;;;17.22;100.00;100288.25;5212397;28;20402;-50
2023/07/27 04:21:27;;;;;;;4.75;2.00;;;17.00;99.90;;;17.20;100.00;100285.59;5217497;28;20049;-50
2023/07/27 04:23:59;;;;;;;3.67;2.33;;;17.00;99.90;;;17.18;100.00;100278.59;5227038;28;20059;-51
2023/07/27 04:26:35;;;;;;;4.28;2.30;;;17.00;99.90;;;17.14;100.00;100274.19;5218728;28;20067;-50
2023/07/27 04:29:08;;;;;;;3.17;2.30;;;16.90;99.90;;;17.13;100.00;100269.81;5218735;28;20045;-50
2023/07/27 04:31:40;;;;;;;3.25;2.05;;;16.90;99.90;;;17.12;100.00;100265.44;5227206;28;20055;-51
2023/07/27 04:34:12;;;;;;;4.22;2.33;;;16.90;99.90;;;17.10;100.00;100257.53;5227100;28;20067;-51
2023/07/27 04:36:47;;;;;;;3.90;2.30;;;16.90;99.90;;;17.06;100.00;100248.75;5221642;28;20037;-50
2023/07/27 04:39:19;;;;;;;3.95;2.00;;;16.90;99.90;;;17.04;100.00;100258.41;5227289;28;20055;-50
2023/07/27 04:41:52;;;;;;;4.22;2.03;;;16.80;99.90;;;17.00;100.00;100253.13;5241729;28;20040;-50
2023/07/27 04:44:27;;;;;;;4.60;2.30;;;16.80;99.90;;;16.91;100.00;100256.66;5210971;28;20144;-51
2023/07/27 04:46:59;;;;;;;4.63;2.22;;;16.80;99.90;;;16.87;100.00;100254.00;5226353;28;20056;-50
2023/07/27 04:49:32;;;;;;;4.65;2.45;;;16.70;99.90;;;16.84;100.00;100247.00;5210504;28;20064;-50
2023/07/27 04:52:07;;;;;;;4.57;2.60;;;16.70;99.90;;;16.80;100.00;100247.88;5226899;28;20037;-48
2023/07/27 04:54:40;;;;;;;2.78;2.05;;;16.70;99.90;;;16.75;100.00;100250.47;5237071;28;20036;-50
2023/07/27 04:57:12;;;;;;;5.07;2.13;;;16.60;99.90;;;16.72;100.00;100245.22;5225616;28;20052;-49
2023/07/27 04:59:45;;;;;;;5.15;2.40;;;16.60;99.90;;;16.67;100.00;100238.16;5222995;28;20133;-48
2023/07/27 05:02:20;;;;;;;4.10;2.33;;;16.60;99.90;;;16.63;100.00;100239.06;5207512;28;20053;-49
2023/07/27 05:04:53;;;;;;;6.25;2.60;;;16.60;99.90;;;16.57;100.00;100234.66;5226887;28;20059;-49
2023/07/27 05:07:26;;;;;;;3.85;1.98;;;16.50;99.90;;;16.50;100.00;100236.41;5243742;28;20040;-48
2023/07/27 05:09:59;;;;;;;4.32;2.25;;;16.50;99.90;;;16.47;100.00;100232.88;5218364;28;20044;-49
2023/07/27 05:12:34;;;;;;;5.75;2.60;;;16.40;99.90;;;16.47;100.00;100238.13;5226386;28;20044;-49
2023/07/27 05:15:08;;;;;;;5.78;2.45;;;16.40;99.90;;;16.50;100.00;100233.78;5226688;28;20509;-50
2023/07/27 05:17:40;;;;;;;3.30;1.85;;;16.40;99.90;;;16.53;100.00;100233.75;5211983;28;20495;-48
2023/07/27 05:20:13;;;;;;;2.88;1.90;;;16.40;99.90;;;16.55;100.00;100220.59;5226066;28;20056;-48
2023/07/27 05:22:50;;;;;;;3.97;1.92;;;16.40;99.90;;;16.52;100.00;100221.50;5226533;28;20517;-49
2023/07/27 05:25:22;;;;;;;5.03;2.00;;;16.40;99.90;;;16.50;100.00;100215.34;5217949;28;20064;-49
2023/07/27 05:27:54;;;;;;;3.95;2.28;;;16.40;99.90;;;16.44;100.00;100201.31;5211109;28;20041;-48
2023/07/27 05:30:30;;;;;;;4.47;2.25;;;16.40;99.90;;;16.35;100.00;100201.28;5224003;28;20584;-48
2023/07/27 05:33:03;;;;;;;5.05;2.28;;;16.30;99.90;;;16.33;100.00;100197.78;5222236;28;20071;-48
2023/07/27 05:35:36;;;;;;;3.10;2.25;;;16.30;99.90;;;16.33;100.00;100193.41;5242156;28;20048;-48
2023/07/27 05:38:09;;;;;;;5.28;2.63;;;16.30;99.90;;;16.33;100.00;100185.50;5226131;28;20056;-48
2023/07/27 05:40:45;;;;;;;5.88;2.55;;;16.20;99.90;;;16.31;100.00;100189.91;5222100;28;20053;-49
2023/07/27 05:43:17;;;;;;;4.25;2.40;;;16.20;99.90;;;16.28;100.00;100184.63;5227954;28;20053;-49
2023/07/27 05:45:51;;;;;;;3.90;2.25;;;16.20;99.90;;;16.24;100.00;100177.63;5212370;28;20444;-49
2023/07/27 05:48:23;;;;;;;5.03;2.35;;;16.20;99.90;;;16.23;100.00;100183.72;5222443;28;20055;-49
2023/07/27 05:50:56;;;;;;;5.00;2.50;;;16.10;99.90;;;16.22;100.00;100168.81;5225517;28;20052;-49
2023/07/27 05:53:30;;;;;;;4.30;2.58;;;16.20;99.90;;;16.16;100.00;100164.44;5225309;28;20110;-49
2023/07/27 05:56:02;;;;;;;5.25;2.50;;;16.10;99.90;;;16.16;100.00;100166.19;5225960;28;20048;-49
2023/07/27 05:58:38;;;;;;;4.03;2.30;;;16.10;99.90;;;16.18;100.00;100154.81;5208685;28;20404;-49
2023/07/27 06:01:10;;;;;;;5.72;2.45;;;16.10;99.90;;;16.20;100.00;100154.81;5208621;28;20049;-48
2023/07/27 06:03:42;;;;;;;3.38;2.42;;;16.10;99.90;;;16.24;100.00;100156.56;5217835;28;20059;-48
2023/07/27 06:06:15;;;;;;;3.83;2.40;;;16.10;99.90;;;16.27;100.00;100152.19;5217126;28;20047;-49
2023/07/27 06:08:54;;;;;;;4.95;2.40;;;16.20;99.90;;;16.31;100.00;100146.94;5216730;28;20059;-49
2023/07/27 06:11:27;;;;;;;4.40;2.22;;;16.20;99.90;;;16.37;100.00;100150.47;5224871;28;20044;-49
2023/07/27 06:13:59;;;;;;;3.97;2.22;;;16.20;99.90;;;16.39;100.00;100151.31;5225250;28;20224;-49
2023/07/27 06:16:32;;;;;;;6.88;2.63;;;16.20;99.90;;;16.38;100.00;100139.06;5213515;28;20501;-48
2023/07/27 06:19:04;;;;;;;4.72;2.60;;;16.30;99.90;;;16.39;100.00;100143.44;5204803;28;20512;-50
2023/07/27 06:21:36;;;;;;;5.53;2.53;;;16.30;99.90;;;16.38;100.00;100148.69;5216293;28;20036;-48
2023/07/27 06:24:10;;;;;;;4.13;2.33;;;16.20;99.90;;;16.39;100.00;100129.41;5217143;28;20394;-48
2023/07/27 06:26:46;;;;;;;4.78;2.35;;;16.20;99.90;;;16.39;100.00;100130.28;5216500;28;20044;-48
2023/07/27 06:29:18;;;;;;;4.03;2.15;;;16.20;99.90;;;16.41;100.00;100131.16;5221698;28;20052;-49
2023/07/27 06:31:50;;;;;;;5.22;2.67;;;16.20;99.90;;;16.37;100.00;100126.78;5232188;28;20563;-48
2023/07/27 06:34:23;;;;;;;5.43;2.58;;;16.20;99.90;;;16.34;100.00;100128.53;5208240;28;20448;-49
2023/07/27 06:36:55;;;;;;;6.15;2.75;;;16.20;99.90;;;16.33;100.00;100119.75;5224188;28;20119;-49
2023/07/27 06:39:29;;;;;;;4.30;2.45;;;16.20;99.90;;;16.34;100.00;100118.00;5224731;28;20056;-48
2023/07/27 06:42:01;;;;;;;4.90;2.70;;;16.20;99.90;;;16.36;100.00;100109.22;5224904;28;20044;-49
2023/07/27 06:44:37;;;;;;;4.78;2.50;;;16.20;99.90;;;16.37;100.00;100113.63;5224133;28;20062;-49
2023/07/27 06:47:10;;;;;;;5.00;2.53;;;16.20;99.90;;;16.40;100.00;100126.78;5242070;28;20508;-49
2023/07/27 06:49:42;;;;;;;4.60;2.22;;;16.20;99.90;;;16.41;100.00;100112.75;5225477;28;20150;-49
2023/07/27 06:52:15;;;;;;;5.05;2.53;;;16.30;99.90;;;16.39;100.00;100111.00;5207986;28;20053;-49
2023/07/27 06:54:48;;;;;;;3.40;2.30;;;16.20;99.90;;;16.48;100.00;100105.72;5216907;28;20044;-50
2023/07/27 06:57:21;;;;;;;5.60;2.65;;;16.30;99.90;;;16.49;100.00;100115.38;5221172;28;20444;-49
2023/07/27 06:59:53;;;;;;;3.58;2.22;;;16.40;99.90;;;16.55;100.00;100121.50;5210556;28;20048;-47
2023/07/27 07:02:26;;;;;;;4.78;2.38;;;16.40;99.90;;;16.61;100.00;100106.59;5216891;28;20531;-46
2023/07/27 07:04:58;;;;;;;5.30;2.40;;;16.50;99.90;;;16.64;100.00;100099.59;5217056;28;20045;-47
2023/07/27 07:07:31;;;;;;;3.45;2.20;;;16.50;99.90;;;16.73;100.00;100107.50;5221057;28;20575;-48
2023/07/27 07:10:05;;;;;;;4.05;2.30;;;16.60;99.90;;;16.79;100.00;100114.50;5211291;28;20056;-48
2023/07/27 07:12:38;;;;;;;3.00;2.10;;;16.70;99.90;;;16.84;100.00;100109.25;5224580;28;20101;-46
2023/07/27 07:15:11;;;;;;;3.70;2.33;;;16.70;99.90;;;16.87;100.00;100107.47;5217409;28;20045;-49
2023/07/27 07:17:43;;;;;;;5.18;2.45;;;16.80;99.90;;;16.95;100.00;100105.72;5204325;28;20648;-48
2023/07/27 07:20:16;;;;;;;5.05;2.60;;;16.80;99.90;;;17.04;100.00;100110.97;5204581;28;20132;-47
2023/07/27 07:22:48;;;;;;;3.65;2.20;;;16.90;99.90;;;17.12;100.00;100102.16;5224324;28;20532;-47
2023/07/27 07:25:22;;;;;;;4.50;2.35;;;16.90;99.90;;;17.19;100.00;100104.78;5215711;28;20056;-48
2023/07/27 07:27:55;;;;;;;3.45;2.15;;;17.00;99.90;;;17.27;100.00;100107.38;5223481;28;20132;-49
2023/07/27 07:30:27;;;;;;;4.80;2.22;;;17.10;99.90;;;17.28;100.00;100091.59;5208321;28;20509;-48
2023/07/27 07:32:59;;;;;;;3.40;2.30;;;17.10;99.90;;;17.21;100.00;100096.84;5210034;28;20060;-48
2023/07/27 07:35:34;;;;;;;5.30;2.30;;;17.10;99.90;;;17.17;100.00;100105.66;5211754;28;20084;-48
2023/07/27 07:38:07;;;;;;;5.95;2.47;;;17.10;99.90;;;17.18;100.00;100102.16;5218542;28;20052;-48
2023/07/27 07:40:41;;;;;;;3.42;1.92;;;17.10;99.90;;;17.20;100.00;100095.09;5223593;28;20131;-48
2023/07/27 07:43:13;;;;;;;3.97;2.50;;;17.10;99.90;;;17.23;100.00;100089.84;5207985;28;20040;-48
2023/07/27 07:45:46;;;;;;;5.63;3.05;;;17.10;99.90;;;17.19;100.00;100082.81;5205025;28;20410;-49
2023/07/27 07:48:19;;;;;;;3.92;2.53;;;17.10;99.90;;;17.13;100.00;100085.47;5216934;28;20203;-45
2023/07/27 07:50:54;;;;;;;3.65;2.08;;;17.00;99.90;;;17.11;100.00;100080.22;5227636;28;20509;-49
2023/07/27 07:53:26;;;;;;;3.78;2.08;;;17.00;99.90;;;17.07;100.00;100081.97;5221538;28;20119;-48
2023/07/27 07:56:00;;;;;;;3.17;1.95;;;17.00;99.90;;;17.04;100.00;100084.63;5212714;28;20079;-48
2023/07/27 07:58:32;;;;;;;3.80;2.28;;;17.00;99.90;;;17.03;100.00;100075.00;5216902;28;20090;-48
2023/07/27 08:01:06;;;;;;;5.60;2.20;;;16.90;99.90;;;17.00;100.00;100072.34;5222782;28;20040;-48
2023/07/27 08:03:38;;;;;;;3.53;2.25;;;16.90;99.90;;;17.05;100.00;100067.06;5226680;28;20052;-47
2023/07/27 08:06:12;;;;;;;4.95;2.70;;;17.00;99.90;;;17.05;100.00;100056.53;5220522;28;20536;-46
2023/07/27 08:08:48;;;;;;;3.53;2.47;;;16.90;99.90;;;17.00;100.00;100055.69;5227332;28;20090;-47
2023/07/27 08:11:21;;;;;;;4.35;2.53;;;16.90;99.90;;;17.01;100.00;100057.41;5216361;28;20052;-46
2023/07/27 08:13:55;;;;;;;4.70;2.55;;;16.90;99.90;;;17.01;100.00;100058.28;5219499;28;20056;-44
2023/07/27 08:16:27;;;;;;;4.85;2.63;;;16.90;99.90;;;17.04;100.00;100053.03;5220111;28;20053;-44
2023/07/27 08:19:03;;;;;;;3.60;2.00;;;16.90;99.90;;;17.13;100.00;100057.38;5209031;28;20764;-48
2023/07/27 08:21:35;;;;;;;6.10;2.60;;;17.00;99.90;;;17.15;100.00;100055.66;5217983;28;20413;-48
2023/07/27 08:24:08;;;;;;;3.95;2.30;;;17.00;99.90;;;17.15;100.00;100050.38;5219754;28;20056;-47
2023/07/27 08:26:41;;;;;;;4.57;2.65;;;17.00;99.90;;;17.15;100.00;100052.09;5207823;28;20086;-49
2023/07/27 08:29:14;;;;;;;6.57;2.92;;;17.00;99.90;;;17.18;100.00;100054.75;5243566;28;20068;-48
2023/07/27 08:31:46;;;;;;;4.20;2.55;;;17.10;99.90;;;17.14;100.00;100050.34;5215241;28;20678;-48
2023/07/27 08:34:18;;;;;;;4.05;2.55;;;17.00;99.90;;;17.05;100.00;100041.63;5209429;28;20128;-48
2023/07/27 08:36:54;;;;;;;3.05;2.10;;;17.00;99.90;;;17.01;100.00;100036.38;5221592;28;20421;-48
2023/07/27 08:39:26;;;;;;;4.07;2.35;;;16.90;99.90;;;17.03;100.00;100035.50;5223711;28;20111;-49
2023/07/27 08:42:00;;;;;;;5.15;2.60;;;16.90;99.90;;;17.04;100.00;100028.47;5226746;28;20040;-48
2023/07/27 08:44:33;;;;;;;4.07;2.35;;;16.90;99.90;;;17.03;100.00;100024.97;5224308;28;20049;-48
2023/07/27 08:47:08;;;;;;;4.50;2.10;;;17.00;99.90;;;17.06;100.00;100035.47;5226323;28;20048;-48
2023/07/27 08:49:43;;;;;;;4.38;2.35;;;17.00;99.90;;;17.12;100.00;100028.44;5218477;28;20071;-48
2023/07/27 08:52:16;;;;;;;;;;;17.00;99.90;;;17.20;100.00;100026.63;5218936;28;20438;-48
2023/07/27 08:54:48;;;;;;;3.80;2.55;;;17.00;99.90;;;17.27;100.00;100023.09;5174680;28;19967;-48
2023/07/27 08:57:22;;;;;;;4.25;1.95;;;17.10;99.90;;;17.29;100.00;100021.34;5166965;28;20152;-48
2023/07/27 08:59:54;;;;;;;4.03;2.10;;;17.10;99.90;;;17.30;100.00;100029.22;5193644;28;20052;-48
2023/07/27 09:02:27;;;;;;;4.47;2.60;;;17.10;99.90;;;17.31;100.00;100030.97;5201192;28;20037;-48
2023/07/27 09:04:59;;;;;;;5.05;2.30;;;17.10;99.90;;;17.34;100.00;100032.72;5195871;28;20049;-49
2023/07/27 09:07:32;;;;;;;5.50;2.22;;;17.20;99.90;;;17.34;100.00;100025.72;5198769;28;20623;-49
2023/07/27 09:10:08;;;;;;;4.22;2.25;;;17.20;99.90;;;17.38;100.00;100020.41;5201811;28;20045;-48
2023/07/27 09:12:43;;;;;;;3.15;2.28;;;17.20;99.90;;;17.43;100.00;100023.91;5201831;28;20049;-48
2023/07/27 09:15:19;;;;;;;3.50;2.00;;;17.20;99.90;;;17.49;100.00;100019.47;5194185;28;20060;-48
2023/07/27 09:17:52;;;;;;;4.60;2.40;;;17.30;99.90;;;17.50;100.00;100015.97;5189652;28;20100;-48
2023/07/27 09:20:24;;;;;;;3.20;2.10;;;17.30;99.90;;;17.52;100.00;100016.81;5190063;28;20076;-49
2023/07/27 09:23:00;;;;;;;3.17;2.08;;;17.30;99.90;;;17.54;100.00;100007.16;5196434;28;20139;-48
2023/07/27 09:25:32;;;;;;;2.47;1.60;;;17.30;99.90;;;17.59;100.00;100009.75;5198664;28;20076;-48
2023/07/27 09:28:06;;;;;;;2.80;2.00;;;17.40;99.90;;;17.63;100.00;100008.84;5198882;28;20034;-48
2023/07/27 09:30:45;;;;;;;3.33;2.10;;;17.40;99.90;;;17.64;100.00;100014.09;5215059;28;20054;-49
2023/07/27 09:33:23;;;;;;;2.83;2.00;;;17.40;99.90;;;17.65;100.00;100009.72;5199351;28;20064;-48
2023/07/27 09:35:56;;;;;;;3.55;2.08;;;17.50;99.90;;;17.63;100.00;100009.72;5192681;28;20112;-48
2023/07/27 09:38:29;;;;;;;3.00;1.90;;;17.40;99.90;;;17.61;100.00;100016.78;5213484;28;20060;-49
2023/07/27 09:41:08;;;;;;;4.43;2.47;;;17.40;99.90;;;17.61;100.00;100006.25;5201090;28;20041;-48
2023/07/27 09:43:42;;;;;;;4.38;2.40;;;17.40;99.90;;;17.62;100.00;100010.63;5201471;28;20154;-48
2023/07/27 09:46:14;;;;;;;4.45;2.38;;;17.40;99.90;;;17.63;100.00;100007.09;5201175;28;20053;-48
2023/07/27 09:48:46;;;;;;;2.95;1.90;;;17.40;99.90;;;17.67;100.00;100013.22;5200340;28;20049;-48
2023/07/27 09:51:19;;;;;;;4.38;2.63;;;17.40;99.90;;;17.68;100.00;100007.06;5193267;28;20045;-48
2023/07/27 09:53:52;;;;;;;3.33;2.20;;;17.50;99.90;;;17.71;100.00;100008.78;5185163;28;20534;-48
2023/07/27 09:56:25;;;;;;;6.22;2.45;;;17.50;99.90;;;17.68;100.00;100009.72;5200874;28;20129;-48
2023/07/27 09:59:02;;;;;;;5.03;2.25;;;17.50;99.90;;;17.70;100.00;100002.66;5200375;28;20060;-48
2023/07/27 10:01:35;;;;;;;3.90;2.15;;;17.50;99.90;;;17.71;100.00;100014.97;5200707;28;20133;-48
2023/07/27 10:04:08;;;;;;;4.40;2.15;;;17.60;99.90;;;17.75;100.00;100024.63;5200804;28;20407;-48
2023/07/27 10:06:41;;;;;;;4.78;2.70;;;17.60;99.90;;;17.72;100.00;100010.56;5189764;28;20408;-48
2023/07/27 10:09:21;;;;;;;4.05;2.40;;;17.60;99.90;;;17.74;100.00;100014.09;5195272;28;20525;-48
2023/07/27 10:11:56;;;;;;;5.35;2.42;;;17.60;99.90;;;17.78;100.00;100010.53;5201427;28;20046;-48
2023/07/27 10:14:31;;;;;;;4.95;2.63;;;17.60;99.90;;;17.83;100.00;100000.84;5190719;28;20099;-48
2023/07/27 10:17:08;;;;;;;3.67;2.50;;;17.60;99.90;;;17.88;100.00;100004.31;5195264;28;20046;-49
2023/07/27 10:19:42;;;;;;;4.93;2.38;;;17.70;99.90;;;17.93;100.00;99999.00;5190190;28;20061;-48
2023/07/27 10:22:17;;;;;;;6.72;2.55;;;17.70;99.90;;;17.98;100.00;100002.47;5200291;28;20046;-48
2023/07/27 10:24:52;;;;;;;3.45;2.38;;;17.80;99.90;;;18.05;100.00;99999.78;5199774;28;20063;-48
2023/07/27 10:27:25;;;;;;;3.78;2.17;;;17.80;99.90;;;18.14;100.00;99997.06;5199007;28;20050;-48
2023/07/27 10:30:13;;;;;;;4.90;2.65;;;17.90;99.90;;;18.23;100.00;99997.88;5200052;28;20045;-49
2023/07/27 10:33:08;;;;;;;4.03;2.05;;;18.00;99.90;;;18.34;100.00;99990.75;5191698;28;20033;-48
2023/07/27 10:36:03;;;;;;;3.83;2.22;;;18.00;99.90;;;18.49;100.00;100001.16;5194398;28;20379;-47